Time;durP1;ratioP1;P1;durP2;ratioP2;P2;SDS_P1;SDS_P2;PMS_P1;PMS_P2;Temp;Humidity;BMP_temperature;BMP_pressure;BME280_temperature;BME280_humidity;BME280_pressure;Samples;Min_cycle;Max_cycle;Signal;HPM_P1;HPM_P2
2023/12/13 00:01:25;;;;;;;2.30;1.00;;;7.60;99.90;;;;;;5071894;28;20424;-69
2023/12/13 00:03:52;;;;;;;5.70;0.77;;;7.70;99.90;;;;;;5071800;28;20423;-69
2023/12/13 00:06:17;;;;;;;0.90;0.73;;;7.70;99.90;;;;;;5071821;28;20444;-68
2023/12/13 00:08:43;;;;;;;1.00;0.70;;;7.80;99.90;;;;;;5071757;28;20411;-69
2023/12/13 00:11:08;;;;;;;3.50;0.83;;;7.80;99.90;;;;;;5071632;28;20194;-69
2023/12/13 00:13:34;;;;;;;1.93;0.90;;;7.80;99.90;;;;;;5071777;28;20162;-68
2023/12/13 00:16:01;;;;;;;1.13;0.80;;;7.80;99.90;;;;;;5071846;28;20177;-69
2023/12/13 00:18:26;;;;;;;3.20;1.13;;;7.80;99.90;;;;;;5071684;28;20446;-69
2023/12/13 00:20:52;;;;;;;1.20;0.93;;;7.80;99.90;;;;;;5070433;28;20432;-68
2023/12/13 00:23:18;;;;;;;1.00;0.90;;;7.70;99.90;;;;;;5071655;28;20198;-69
2023/12/13 00:25:43;;;;;;;0.80;0.70;;;7.70;99.90;;;;;;5071714;28;20657;-69
2023/12/13 00:28:09;;;;;;;2.50;0.83;;;7.80;99.90;;;;;;5075950;28;20193;-69
2023/12/13 00:30:34;;;;;;;13.13;1.33;;;7.80;99.90;;;;;;5075540;28;20226;-71
2023/12/13 00:33:00;;;;;;;3.90;0.80;;;7.70;99.90;;;;;;5075588;28;20223;-69
2023/12/13 00:35:25;;;;;;;2.03;0.77;;;7.80;99.90;;;;;;5075803;28;20244;-69
2023/12/13 00:37:51;;;;;;;4.20;1.30;;;7.80;99.90;;;;;;5075683;28;20192;-69
2023/12/13 00:40:18;;;;;;;1.17;0.80;;;7.80;99.90;;;;;;5075233;28;20529;-69
2023/12/13 00:42:44;;;;;;;1.50;0.90;;;7.80;99.90;;;;;;5075493;28;20154;-69
2023/12/13 00:45:10;;;;;;;1.40;0.87;;;7.90;99.90;;;;;;5074172;28;20400;-69
2023/12/13 00:47:37;;;;;;;0.87;0.70;;;7.90;99.90;;;;;;5075375;28;20633;-68
2023/12/13 00:50:02;;;;;;;2.47;0.90;;;7.90;99.90;;;;;;5075289;28;20891;-69
2023/12/13 00:52:28;;;;;;;2.20;0.97;;;8.00;99.90;;;;;;5073874;28;20427;-69
2023/12/13 00:54:54;;;;;;;1.03;0.70;;;8.00;99.90;;;;;;5075192;28;20216;-69
2023/12/13 00:57:20;;;;;;;4.30;1.13;;;8.10;99.90;;;;;;5075283;28;20408;-69
2023/12/13 00:59:45;;;;;;;3.53;1.07;;;8.00;99.90;;;;;;5075047;28;20190;-69
2023/12/13 01:02:11;;;;;;;1.77;0.70;;;8.00;99.90;;;;;;5075064;28;20192;-70
2023/12/13 01:04:38;;;;;;;1.20;0.73;;;8.00;99.90;;;;;;5075134;28;20192;-70
2023/12/13 01:07:03;;;;;;;1.63;1.10;;;8.00;99.90;;;;;;5075047;28;20634;-70
2023/12/13 01:09:29;;;;;;;1.53;1.10;;;8.00;99.90;;;;;;5074789;28;20487;-69
2023/12/13 01:11:54;;;;;;;1.10;0.73;;;8.10;99.90;;;;;;5074816;28;20285;-68
2023/12/13 01:14:20;;;;;;;5.10;1.10;;;8.10;99.90;;;;;;5075056;28;20246;-68
2023/12/13 01:16:45;;;;;;;1.37;0.80;;;8.10;99.90;;;;;;5074968;28;20603;-68
2023/12/13 01:19:11;;;;;;;6.40;0.90;;;8.20;99.90;;;;;;5073476;28;20265;-69
2023/12/13 01:21:37;;;;;;;5.03;1.03;;;8.30;99.90;;;;;;5074831;28;20186;-69
2023/12/13 01:24:02;;;;;;;1.53;0.80;;;8.30;99.90;;;;;;5074668;28;20571;-69
2023/12/13 01:26:28;;;;;;;2.57;0.90;;;8.40;99.90;;;;;;5074720;28;20444;-69
2023/12/13 01:28:54;;;;;;;3.13;0.90;;;8.40;99.90;;;;;;5074623;28;20558;-69
2023/12/13 01:31:20;;;;;;;1.13;0.80;;;8.40;99.90;;;;;;5074625;28;20186;-70
2023/12/13 01:33:45;;;;;;;5.33;0.90;;;8.50;99.90;;;;;;5074680;28;20170;-68
2023/12/13 01:36:11;;;;;;;2.20;0.90;;;8.50;99.90;;;;;;5074646;28;20568;-68
2023/12/13 01:38:37;;;;;;;1.20;0.90;;;8.50;99.90;;;;;;5073131;28;20166;-69
2023/12/13 01:41:03;;;;;;;4.20;1.33;;;8.60;99.90;;;;;;5073148;28;20194;-69
2023/12/13 01:43:29;;;;;;;1.20;0.77;;;8.60;99.90;;;;;;5074330;28;20170;-69
2023/12/13 01:45:57;;;;;;;1.90;0.97;;;8.70;99.90;;;;;;5074271;28;20458;-69
2023/12/13 01:48:25;;;;;;;1.77;1.13;;;8.70;99.90;;;;;;5074274;28;20510;-70
2023/12/13 01:50:52;;;;;;;0.90;0.60;;;8.70;99.90;;;;;;5074314;28;20474;-70
2023/12/13 01:53:18;;;;;;;3.33;0.93;;;8.80;99.90;;;;;;5073944;28;20420;-69
2023/12/13 01:55:45;;;;;;;1.40;1.10;;;8.90;99.90;;;;;;5074268;28;20465;-69
2023/12/13 01:58:11;;;;;;;5.13;1.53;;;8.90;99.90;;;;;;5074127;28;20404;-69
2023/12/13 02:00:39;;;;;;;2.63;1.00;;;8.90;99.90;;;;;;5073989;28;20486;-70
2023/12/13 02:03:07;;;;;;;1.90;1.20;;;8.90;99.90;;;;;;5073999;28;20408;-69
2023/12/13 02:05:33;;;;;;;1.00;0.90;;;8.90;99.90;;;;;;5073916;28;20455;-70
2023/12/13 02:07:59;;;;;;;2.97;1.20;;;8.90;99.90;;;;;;5073891;28;20407;-69
2023/12/13 02:10:24;;;;;;;2.03;0.90;;;8.90;99.90;;;;;;5073686;28;20400;-69
2023/12/13 02:12:51;;;;;;;2.07;1.00;;;8.90;99.90;;;;;;5073732;28;20957;-69
2023/12/13 02:15:16;;;;;;;2.43;0.87;;;8.90;99.90;;;;;;5073868;28;20162;-70
2023/12/13 02:17:52;;;;;;;2.60;1.00;;;8.90;99.90;;;;;;5073838;28;20950;-69
2023/12/13 02:20:18;;;;;;;1.53;0.93;;;9.00;99.90;;;;;;5073599;28;20170;-70
2023/12/13 02:22:44;;;;;;;1.30;1.00;;;8.90;99.90;;;;;;5073596;28;20427;-69
2023/12/13 02:25:16;;;;;;;1.47;0.90;;;8.90;99.90;;;;;;5073692;28;20409;-69
2023/12/13 02:27:42;;;;;;;4.40;0.87;;;8.80;99.90;;;;;;5073712;28;20166;-70
2023/12/13 02:30:09;;;;;;;2.40;1.00;;;8.80;99.90;;;;;;5073452;28;20384;-69
2023/12/13 02:32:34;;;;;;;2.23;1.37;;;8.80;99.90;;;;;;5073405;28;20642;-69
2023/12/13 02:35:00;;;;;;;2.57;0.77;;;8.80;99.90;;;;;;5073381;28;20392;-69
2023/12/13 02:37:26;;;;;;;3.63;1.23;;;8.80;99.90;;;;;;5073432;28;20174;-70
2023/12/13 02:39:51;;;;;;;3.13;1.57;;;8.80;99.90;;;;;;5073178;28;20177;-69
2023/12/13 02:42:17;;;;;;;3.57;1.03;;;8.80;99.90;;;;;;5073171;28;20186;-69
2023/12/13 02:44:43;;;;;;;3.73;1.03;;;8.80;99.90;;;;;;5073362;28;20171;-69
2023/12/13 02:47:09;;;;;;;1.63;1.20;;;8.80;99.90;;;;;;5073194;28;20197;-69
2023/12/13 02:49:35;;;;;;;3.10;1.07;;;8.80;99.90;;;;;;5072715;28;20162;-71
2023/12/13 02:52:01;;;;;;;2.87;1.20;;;8.90;99.90;;;;;;5072895;28;20412;-71
2023/12/13 02:54:26;;;;;;;1.33;1.00;;;9.00;99.90;;;;;;5072931;28;20190;-69
2023/12/13 02:56:52;;;;;;;3.70;1.13;;;8.90;99.90;;;;;;5073016;28;20178;-70
2023/12/13 02:59:17;;;;;;;1.73;1.03;;;8.90;99.90;;;;;;5072773;28;20166;-70
2023/12/13 03:01:43;;;;;;;8.07;1.33;;;9.00;99.90;;;;;;5072883;28;20654;-71
2023/12/13 03:04:08;;;;;;;5.43;1.00;;;8.90;99.90;;;;;;5072758;28;20180;-70
2023/12/13 03:06:34;;;;;;;1.53;1.30;;;9.00;99.90;;;;;;5072764;28;20203;-69
2023/12/13 03:08:59;;;;;;;6.30;1.10;;;9.00;99.90;;;;;;5071333;28;20633;-72
2023/12/13 03:11:25;;;;;;;6.87;1.37;;;9.00;99.90;;;;;;5072677;28;20201;-69
2023/12/13 03:13:51;;;;;;;1.03;0.93;;;8.90;99.90;;;;;;5072645;28;20251;-69
2023/12/13 03:16:16;;;;;;;2.70;1.00;;;8.90;99.90;;;;;;5072655;28;20665;-69
2023/12/13 03:18:42;;;;;;;1.87;1.17;;;8.90;99.90;;;;;;5072494;28;20182;-70
2023/12/13 03:21:07;;;;;;;4.00;1.20;;;8.90;99.90;;;;;;5072448;28;20190;-70
2023/12/13 03:23:32;;;;;;;8.80;1.70;;;8.90;99.90;;;;;;5072452;28;20227;-69
2023/12/13 03:25:58;;;;;;;3.00;1.10;;;8.90;99.90;;;;;;5072376;28;20194;-70
2023/12/13 03:28:24;;;;;;;1.47;1.37;;;8.90;99.90;;;;;;5072261;28;20702;-70
2023/12/13 03:30:49;;;;;;;2.83;1.20;;;8.80;99.90;;;;;;5072355;28;20180;-69
2023/12/13 03:33:15;;;;;;;3.37;1.00;;;8.70;99.90;;;;;;5072187;28;20506;-69
2023/12/13 03:35:40;;;;;;;1.37;1.20;;;8.60;99.90;;;;;;5072251;28;20256;-69
2023/12/13 03:38:06;;;;;;;3.83;1.63;;;8.60;99.90;;;;;;5071060;28;20174;-70
2023/12/13 03:40:32;;;;;;;5.37;1.50;;;8.60;99.90;;;;;;5071898;28;20208;-70
2023/12/13 03:42:58;;;;;;;10.20;1.60;;;8.70;99.90;;;;;;5070852;28;20181;-69
2023/12/13 03:45:24;;;;;;;8.70;1.37;;;8.60;99.90;;;;;;5072103;28;20174;-69
2023/12/13 03:47:50;;;;;;;2.00;1.47;;;8.70;99.90;;;;;;5072139;28;20396;-69
2023/12/13 03:50:15;;;;;;;3.30;1.50;;;8.80;99.90;;;;;;5070553;28;20417;-69
2023/12/13 03:52:41;;;;;;;2.40;1.17;;;8.90;99.90;;;;;;5071981;28;20162;-70
2023/12/13 03:55:07;;;;;;;2.93;1.37;;;8.90;99.90;;;;;;5071990;28;20181;-70
2023/12/13 03:57:32;;;;;;;2.10;1.40;;;8.80;99.90;;;;;;5072009;28;20170;-70
2023/12/13 03:59:58;;;;;;;1.50;1.20;;;8.90;99.90;;;;;;5071820;28;20964;-71
2023/12/13 04:02:23;;;;;;;6.00;1.50;;;8.80;99.90;;;;;;5071155;28;20595;-69
2023/12/13 04:04:50;;;;;;;3.33;1.40;;;8.80;99.90;;;;;;5071898;28;20208;-69
2023/12/13 04:07:15;;;;;;;1.43;1.33;;;8.70;99.90;;;;;;5071844;28;20248;-69
2023/12/13 04:09:41;;;;;;;5.00;1.40;;;8.80;99.90;;;;;;5071786;28;20448;-70
2023/12/13 04:12:07;;;;;;;4.67;1.33;;;8.70;99.90;;;;;;5071688;28;20236;-70
2023/12/13 04:14:32;;;;;;;2.47;1.80;;;8.80;99.90;;;;;;5071872;28;20166;-69
2023/12/13 04:16:58;;;;;;;3.03;1.43;;;8.80;99.90;;;;;;5071815;28;20166;-70
2023/12/13 04:19:23;;;;;;;6.30;1.60;;;8.80;99.90;;;;;;5071661;28;20166;-70
2023/12/13 04:21:49;;;;;;;3.27;1.70;;;8.80;99.90;;;;;;5071614;28;20182;-70
2023/12/13 04:24:14;;;;;;;1.83;1.33;;;8.70;99.90;;;;;;5071784;28;20742;-70
2023/12/13 04:26:40;;;;;;;2.57;1.40;;;8.60;99.90;;;;;;5071657;28;20235;-70
2023/12/13 04:29:06;;;;;;;6.57;1.60;;;8.60;99.90;;;;;;5071520;28;20215;-70
2023/12/13 04:31:31;;;;;;;4.40;1.60;;;8.60;99.90;;;;;;5071516;28;20428;-70
2023/12/13 04:33:57;;;;;;;1.73;1.47;;;8.60;99.90;;;;;;5071592;28;20170;-70
2023/12/13 04:36:22;;;;;;;2.67;2.03;;;8.50;99.90;;;;;;5071637;28;20193;-69
2023/12/13 04:38:48;;;;;;;5.40;1.40;;;8.40;99.90;;;;;;5071490;28;20174;-69
2023/12/13 04:41:13;;;;;;;3.70;1.37;;;8.20;99.90;;;;;;5071509;28;20428;-70
2023/12/13 04:43:39;;;;;;;3.50;1.60;;;8.10;99.90;;;;;;5071490;28;20532;-70
2023/12/13 04:46:05;;;;;;;2.90;1.47;;;8.10;99.90;;;;;;5071481;28;20223;-69
2023/12/13 04:48:30;;;;;;;7.60;1.10;;;8.10;99.90;;;;;;5071419;28;20205;-69
2023/12/13 04:50:57;;;;;;;2.20;1.20;;;8.00;99.90;;;;;;5071454;28;20545;-69
2023/12/13 04:53:22;;;;;;;7.53;1.80;;;8.00;99.90;;;;;;5071299;28;20170;-70
2023/12/13 04:55:48;;;;;;;2.80;1.53;;;7.80;99.90;;;;;;5071478;28;20408;-69
2023/12/13 04:58:14;;;;;;;4.10;1.20;;;7.80;99.90;;;;;;5071430;28;20578;-69
2023/12/13 05:00:39;;;;;;;5.47;1.83;;;7.70;99.90;;;;;;5071291;28;20186;-69
2023/12/13 05:03:05;;;;;;;4.37;1.90;;;7.60;99.90;;;;;;5071315;28;20409;-69
2023/12/13 05:05:30;;;;;;;3.90;1.53;;;7.60;99.90;;;;;;5071244;28;20178;-69
2023/12/13 05:07:56;;;;;;;3.07;1.13;;;7.70;99.90;;;;;;5071292;28;20170;-69
2023/12/13 05:10:22;;;;;;;2.60;1.33;;;7.60;99.90;;;;;;5071027;28;20220;-70
2023/12/13 05:12:47;;;;;;;12.63;1.87;;;7.50;99.90;;;;;;5073163;28;20220;-69
2023/12/13 05:15:13;;;;;;;4.13;1.33;;;7.40;99.90;;;;;;5074966;28;20227;-69
2023/12/13 05:17:38;;;;;;;1.43;1.20;;;7.50;99.90;;;;;;5074973;28;20166;-69
2023/12/13 05:20:04;;;;;;;3.93;1.20;;;7.40;99.90;;;;;;5074902;28;20170;-69
2023/12/13 05:22:30;;;;;;;1.23;1.10;;;7.40;99.90;;;;;;5074772;28;20187;-70
2023/12/13 05:24:56;;;;;;;1.73;0.97;;;7.40;99.90;;;;;;5074916;28;20465;-69
2023/12/13 05:27:21;;;;;;;6.07;1.87;;;7.40;99.90;;;;;;5074847;28;20201;-69
2023/12/13 05:29:47;;;;;;;2.60;1.60;;;7.40;99.90;;;;;;5074631;28;20159;-69
2023/12/13 05:32:12;;;;;;;4.33;1.77;;;7.30;99.90;;;;;;5074577;28;20193;-70
2023/12/13 05:34:38;;;;;;;2.53;1.30;;;7.40;99.90;;;;;;5073479;28;20174;-70
2023/12/13 05:37:05;;;;;;;1.57;1.00;;;7.30;99.90;;;;;;5074690;28;20656;-69
2023/12/13 05:39:31;;;;;;;1.23;1.13;;;7.40;99.90;;;;;;5074474;28;20166;-69
2023/12/13 05:41:57;;;;;;;5.83;1.93;;;7.40;99.90;;;;;;5074502;28;20424;-69
2023/12/13 05:44:22;;;;;;;3.83;1.37;;;7.50;99.90;;;;;;5074636;28;20408;-69
2023/12/13 05:46:48;;;;;;;2.80;1.20;;;7.50;99.90;;;;;;5074447;28;20259;-70
2023/12/13 05:49:15;;;;;;;1.70;1.30;;;7.60;99.90;;;;;;5074261;28;20163;-69
2023/12/13 05:51:40;;;;;;;7.10;2.80;;;7.60;99.90;;;;;;5074342;28;20616;-70
2023/12/13 05:54:06;;;;;;;3.13;1.40;;;7.60;99.90;;;;;;5072871;28;20531;-70
2023/12/13 05:56:32;;;;;;;7.80;1.60;;;7.60;99.90;;;;;;5074303;28;20178;-69
2023/12/13 05:58:57;;;;;;;3.97;1.33;;;7.70;99.90;;;;;;5074006;28;20258;-69
2023/12/13 06:01:23;;;;;;;4.03;1.80;;;7.70;99.90;;;;;;5074083;28;20425;-69
2023/12/13 06:03:48;;;;;;;6.43;1.30;;;7.70;99.90;;;;;;5073939;28;20193;-69
2023/12/13 06:06:14;;;;;;;5.20;1.93;;;7.70;99.90;;;;;;5074011;28;20190;-69
2023/12/13 06:08:40;;;;;;;1.83;1.13;;;7.70;99.90;;;;;;5072586;28;20173;-69
2023/12/13 06:11:07;;;;;;;2.33;1.43;;;7.80;99.90;;;;;;5074023;28;20732;-69
2023/12/13 06:13:32;;;;;;;4.33;1.60;;;7.70;99.90;;;;;;5073940;28;20404;-70
2023/12/13 06:15:58;;;;;;;1.57;1.40;;;7.60;99.90;;;;;;5073908;28;20407;-69
2023/12/13 06:18:24;;;;;;;5.57;1.33;;;7.60;99.90;;;;;;5073613;28;20179;-72
2023/12/13 06:20:49;;;;;;;4.43;2.00;;;7.50;99.90;;;;;;5073736;28;20190;-69
2023/12/13 06:23:15;;;;;;;8.77;1.90;;;7.40;99.90;;;;;;5073447;28;20174;-69
2023/12/13 06:25:40;;;;;;;3.80;2.20;;;7.30;99.90;;;;;;5073327;28;20201;-69
2023/12/13 06:28:06;;;;;;;2.47;1.63;;;7.20;99.90;;;;;;5073692;28;20625;-69
2023/12/13 06:30:31;;;;;;;3.40;1.60;;;7.10;99.90;;;;;;5073302;28;20272;-69
2023/12/13 06:32:57;;;;;;;1.63;1.40;;;7.10;99.90;;;;;;5072177;28;20177;-70
2023/12/13 06:35:22;;;;;;;3.17;1.53;;;7.10;99.90;;;;;;5073560;28;20166;-69
2023/12/13 06:37:48;;;;;;;1.70;1.60;;;7.10;99.90;;;;;;5073503;28;20177;-69
2023/12/13 06:40:14;;;;;;;2.87;1.60;;;7.10;99.90;;;;;;5073226;28;20584;-69
2023/12/13 06:42:41;;;;;;;3.10;1.53;;;7.10;99.90;;;;;;5073271;28;20170;-69
2023/12/13 06:45:07;;;;;;;3.50;1.60;;;7.20;99.90;;;;;;5073433;28;20926;-69
2023/12/13 06:47:32;;;;;;;1.30;1.20;;;7.20;99.90;;;;;;5073149;28;20855;-69
2023/12/13 06:49:58;;;;;;;2.83;1.57;;;7.30;99.90;;;;;;5073196;28;20408;-69
2023/12/13 06:52:23;;;;;;;3.90;1.97;;;7.30;99.90;;;;;;5073124;28;20194;-69
2023/12/13 06:54:49;;;;;;;9.90;2.07;;;7.30;99.90;;;;;;5073090;28;20182;-71
2023/12/13 06:57:16;;;;;;;2.03;1.40;;;7.20;99.90;;;;;;5073067;28;20653;-69
2023/12/13 06:59:42;;;;;;;3.03;1.70;;;7.10;99.90;;;;;;5072751;28;20170;-70
2023/12/13 07:02:07;;;;;;;6.47;2.43;;;7.20;99.90;;;;;;5072771;28;20425;-69
2023/12/13 07:04:35;;;;;;;3.70;1.73;;;7.20;99.90;;;;;;5072977;28;20586;-69
2023/12/13 07:07:01;;;;;;;4.37;1.47;;;7.10;99.90;;;;;;5072838;28;20564;-69
2023/12/13 07:09:26;;;;;;;3.83;2.00;;;7.10;99.90;;;;;;5072721;28;20411;-69
2023/12/13 07:11:52;;;;;;;4.80;2.90;;;7.00;99.90;;;;;;5072598;28;20261;-70
2023/12/13 07:14:17;;;;;;;3.50;1.70;;;7.00;99.90;;;;;;5072811;28;20234;-71
2023/12/13 07:16:43;;;;;;;7.93;2.47;;;6.90;99.90;;;;;;5072663;28;20527;-69
2023/12/13 07:19:09;;;;;;;4.13;1.90;;;6.80;99.90;;;;;;5072498;28;20174;-69
2023/12/13 07:21:35;;;;;;;2.60;1.97;;;6.70;99.90;;;;;;5072529;28;20541;-69
2023/12/13 07:24:02;;;;;;;2.70;1.80;;;6.60;99.90;;;;;;5071249;28;20415;-69
2023/12/13 07:26:27;;;;;;;3.40;1.93;;;6.50;99.90;;;;;;5071093;28;20197;-71
2023/12/13 07:28:53;;;;;;;2.73;2.13;;;6.60;99.90;;;;;;5072292;28;20442;-69
2023/12/13 07:31:18;;;;;;;4.97;2.00;;;6.50;99.90;;;;;;5071059;28;20186;-69
2023/12/13 07:33:45;;;;;;;11.23;1.67;;;6.60;99.90;;;;;;5072314;28;20173;-70
2023/12/13 07:36:14;;;;;;;5.90;2.07;;;6.60;99.90;;;;;;5071517;28;20166;-69
2023/12/13 07:38:41;;;;;;;6.33;3.10;;;6.60;99.90;;;;;;5072162;28;20438;-70
2023/12/13 07:41:07;;;;;;;6.07;2.20;;;6.60;99.90;;;;;;5072172;28;20428;-70
2023/12/13 07:43:33;;;;;;;6.27;2.90;;;6.70;99.90;;;;;;5072104;28;20405;-70
2023/12/13 07:45:58;;;;;;;3.47;2.23;;;6.80;99.90;;;;;;5072097;28;20444;-69
2023/12/13 07:48:24;;;;;;;4.43;2.30;;;6.80;99.90;;;;;;5072179;28;20216;-70
2023/12/13 07:50:50;;;;;;;5.50;2.40;;;6.90;99.90;;;;;;5072128;28;20178;-69
2023/12/13 07:53:16;;;;;;;6.80;2.83;;;7.00;99.90;;;;;;5071895;28;20802;-71
2023/12/13 07:55:41;;;;;;;3.53;2.13;;;7.10;99.90;;;;;;5072065;28;20405;-69
2023/12/13 07:58:07;;;;;;;7.13;2.87;;;7.20;99.90;;;;;;5072065;28;20173;-70
2023/12/13 08:00:32;;;;;;;2.50;2.10;;;7.20;99.90;;;;;;5071767;28;20182;-70
2023/12/13 08:02:58;;;;;;;4.47;2.30;;;7.20;99.90;;;;;;5071947;28;20528;-70
2023/12/13 08:05:23;;;;;;;8.30;2.80;;;7.30;99.90;;;;;;5071990;28;20170;-69
2023/12/13 08:07:49;;;;;;;12.03;3.43;;;7.30;99.90;;;;;;5071928;28;20181;-70
2023/12/13 08:10:15;;;;;;;5.20;2.30;;;7.40;99.90;;;;;;5070364;28;20170;-70
2023/12/13 08:12:44;;;;;;;3.13;2.10;;;7.50;99.90;;;;;;5071839;28;20223;-70
2023/12/13 08:15:12;;;;;;;3.20;2.50;;;7.40;99.90;;;;;;5071813;28;20813;-70
2023/12/13 08:17:38;;;;;;;6.93;2.60;;;7.50;99.90;;;;;;5071517;28;20431;-70
2023/12/13 08:20:04;;;;;;;4.60;2.10;;;7.40;99.90;;;;;;5071746;28;20818;-70
2023/12/13 08:22:30;;;;;;;4.87;2.40;;;7.60;99.90;;;;;;5070382;28;20677;-69
2023/12/13 08:24:55;;;;;;;3.40;2.03;;;7.60;99.90;;;;;;5071447;28;20408;-69
2023/12/13 08:27:21;;;;;;;3.63;2.37;;;7.70;99.90;;;;;;5071644;28;20560;-70
2023/12/13 08:29:46;;;;;;;3.53;2.30;;;7.80;99.90;;;;;;5071530;28;20721;-70
2023/12/13 08:32:12;;;;;;;4.80;2.33;;;7.90;99.90;;;;;;5071623;28;20547;-70
2023/12/13 08:34:37;;;;;;;4.40;2.70;;;8.00;99.90;;;;;;5071719;28;20159;-69
2023/12/13 08:37:03;;;;;;;2.50;2.00;;;8.00;99.90;;;;;;5070375;28;20220;-69
2023/12/13 08:39:28;;;;;;;2.93;2.47;;;8.10;99.90;;;;;;5071386;28;20657;-69
2023/12/13 08:41:54;;;;;;;4.30;2.80;;;8.10;99.90;;;;;;5071489;28;20602;-69
2023/12/13 08:44:21;;;;;;;3.20;2.90;;;8.20;99.90;;;;;;5071611;28;20597;-70
2023/12/13 08:46:47;;;;;;;3.53;2.20;;;8.30;99.90;;;;;;5071977;28;20660;-68
2023/12/13 08:49:12;;;;;;;7.40;2.20;;;8.40;99.90;;;;;;5075410;28;20400;-69
2023/12/13 08:51:38;;;;;;;3.20;2.10;;;8.60;99.90;;;;;;5075513;28;20424;-69
2023/12/13 08:54:04;;;;;;;3.20;2.90;;;8.80;99.90;;;;;;5075181;28;20239;-69
2023/12/13 08:56:30;;;;;;;5.07;2.80;;;9.10;99.90;;;;;;5075390;28;20170;-70
2023/12/13 08:58:55;;;;;;;3.53;3.00;;;9.30;99.90;;;;;;5075173;28;20396;-70
2023/12/13 09:01:21;;;;;;;5.80;2.77;;;9.50;99.90;;;;;;5075232;28;20190;-69
2023/12/13 09:03:46;;;;;;;3.80;2.53;;;9.50;99.90;;;;;;5075150;28;20181;-69
2023/12/13 09:06:14;;;;;;;6.57;2.67;;;9.50;99.90;;;;;;5075180;28;20197;-69
2023/12/13 09:08:40;;;;;;;5.60;3.13;;;9.60;99.90;;;;;;5074985;28;20162;-70
2023/12/13 09:11:05;;;;;;;3.60;2.93;;;9.70;99.90;;;;;;5075057;28;20605;-70
2023/12/13 09:13:32;;;;;;;4.70;2.90;;;9.60;99.90;;;;;;5074956;28;20194;-70
2023/12/13 09:15:58;;;;;;;2.90;2.40;;;9.70;99.90;;;;;;5075243;28;20249;-69
2023/12/13 09:18:24;;;;;;;5.40;3.40;;;9.60;99.90;;;;;;5075502;28;20447;-69
2023/12/13 09:20:49;;;;;;;6.20;2.37;;;9.50;99.90;;;;;;5074800;28;20182;-69
2023/12/13 09:23:22;;;;;;;5.27;3.10;;;9.50;99.90;;;;;;5074777;28;20253;-69
2023/12/13 09:25:48;;;;;;;4.20;2.60;;;9.40;99.90;;;;;;5074747;28;20194;-69
2023/12/13 09:28:13;;;;;;;5.47;2.80;;;9.20;99.90;;;;;;5074876;28;20806;-68
2023/12/13 09:30:39;;;;;;;7.90;3.00;;;9.40;99.90;;;;;;5074492;28;20179;-68
2023/12/13 09:33:04;;;;;;;6.87;3.30;;;9.60;99.90;;;;;;5074586;28;20162;-69
2023/12/13 09:35:30;;;;;;;8.37;3.70;;;9.80;99.90;;;;;;5074684;28;20163;-71
2023/12/13 09:37:56;;;;;;;4.40;3.30;;;9.90;99.90;;;;;;5074567;28;20207;-69
2023/12/13 09:40:22;;;;;;;7.93;3.37;;;10.10;99.90;;;;;;5074356;28;20880;-68
2023/12/13 09:42:47;;;;;;;7.83;2.77;;;10.00;99.90;;;;;;5074339;28;20167;-68
2023/12/13 09:45:21;;;;;;;11.70;3.00;;;10.10;99.90;;;;;;5074513;28;20757;-69
2023/12/13 09:47:51;;;;;;;4.00;3.57;;;10.00;99.90;;;;;;5074374;28;20190;-68
2023/12/13 09:50:21;;;;;;;9.47;3.40;;;10.20;99.90;;;;;;5074092;28;20424;-69
2023/12/13 09:52:47;;;;;;;4.10;3.30;;;10.30;99.90;;;;;;5074326;28;20755;-69
2023/12/13 09:55:14;;;;;;;5.67;3.90;;;10.40;99.90;;;;;;5074216;28;20404;-69
2023/12/13 09:57:40;;;;;;;4.80;3.07;;;10.60;99.90;;;;;;5074267;28;20404;-69
2023/12/13 10:00:07;;;;;;;4.13;3.30;;;10.70;99.90;;;;;;5072969;28;20428;-69
2023/12/13 10:02:33;;;;;;;9.23;2.87;;;11.00;99.90;;;;;;5073956;28;20511;-69
2023/12/13 10:04:59;;;;;;;4.20;2.23;;;11.30;99.90;;;;;;5073982;28;20487;-70
2023/12/13 10:07:27;;;;;;;7.87;2.10;;;11.60;99.90;;;;;;5073941;28;20205;-69
2023/12/13 10:09:55;;;;;;;2.07;1.77;;;11.70;99.90;;;;;;5073850;28;20397;-70
2023/12/13 10:12:21;;;;;;;6.37;1.90;;;11.90;99.90;;;;;;5073798;28;20428;-68
2023/12/13 10:14:46;;;;;;;1.60;1.40;;;12.10;99.90;;;;;;5073973;28;20400;-69
2023/12/13 10:17:12;;;;;;;4.93;2.60;;;12.30;99.90;;;;;;5073854;28;20404;-69
2023/12/13 10:19:38;;;;;;;4.70;2.00;;;12.40;99.90;;;;;;5073633;28;20535;-69
2023/12/13 10:22:06;;;;;;;7.57;2.00;;;12.50;99.90;;;;;;5073863;28;20277;-70
2023/12/13 10:24:32;;;;;;;5.13;1.53;;;12.50;99.90;;;;;;5073882;28;20173;-69
2023/12/13 10:26:58;;;;;;;2.60;1.40;;;12.40;99.90;;;;;;5073613;28;20448;-69
2023/12/13 10:29:24;;;;;;;3.47;1.90;;;12.30;99.90;;;;;;5073588;28;20408;-68
2023/12/13 10:31:49;;;;;;;2.43;1.40;;;12.40;99.90;;;;;;5073432;28;20190;-69
2023/12/13 10:34:15;;;;;;;2.90;1.30;;;12.50;99.90;;;;;;5073500;28;20179;-70
2023/12/13 10:36:42;;;;;;;9.20;1.80;;;12.80;99.90;;;;;;5073385;28;20205;-71
2023/12/13 10:39:13;;;;;;;3.97;2.33;;;12.90;99.90;;;;;;5073567;28;20250;-69
2023/12/13 10:41:39;;;;;;;3.13;1.73;;;13.00;99.90;;;;;;5073311;28;20515;-69
2023/12/13 10:44:07;;;;;;;4.43;3.27;;;13.00;99.90;;;;;;5071958;28;20995;-69
2023/12/13 10:46:45;;;;;;;3.60;2.17;;;13.00;99.90;;;;;;5071834;28;20201;-69
2023/12/13 10:49:17;;;;;;;8.17;1.70;;;12.80;99.90;;;;;;5073114;28;20396;-70
2023/12/13 10:51:45;;;;;;;8.53;1.80;;;12.70;99.90;;;;;;5071891;28;20425;-69
2023/12/13 10:54:12;;;;;;;3.10;1.37;;;12.50;99.90;;;;;;5073016;28;20513;-69
2023/12/13 10:56:39;;;;;;;2.10;1.50;;;12.30;99.90;;;;;;5073048;28;20404;-69
2023/12/13 10:59:06;;;;;;;5.40;1.77;;;12.30;99.90;;;;;;5072748;28;20482;-68
2023/12/13 11:01:32;;;;;;;3.47;2.50;;;12.30;99.90;;;;;;5071586;28;20432;-69
2023/12/13 11:04:05;;;;;;;3.90;1.40;;;12.20;99.90;;;;;;5072731;28;20403;-70
2023/12/13 11:06:31;;;;;;;2.80;1.37;;;12.20;99.90;;;;;;5072917;28;20185;-69
2023/12/13 11:09:20;;;;;;;3.93;1.50;;;12.40;99.90;;;;;;5072633;28;20396;-69
2023/12/13 11:11:46;;;;;;;13.60;4.90;;;12.40;99.90;;;;;;5072443;28;20431;-69
2023/12/13 11:14:15;;;;;;;3.90;1.97;;;12.50;99.90;;;;;;5072673;28;20404;-69
2023/12/13 11:16:45;;;;;;;5.43;2.70;;;12.60;99.90;;;;;;5072685;28;20162;-69
2023/12/13 11:19:12;;;;;;;4.17;1.73;;;12.60;99.90;;;;;;5072447;28;20416;-69
2023/12/13 11:21:39;;;;;;;2.07;1.40;;;12.80;99.90;;;;;;5072488;28;20417;-69
2023/12/13 11:24:20;;;;;;;2.70;1.80;;;12.90;99.90;;;;;;5072339;28;20419;-69
2023/12/13 11:26:50;;;;;;;5.30;1.70;;;12.90;99.90;;;;;;5072355;28;20458;-69
2023/12/13 11:29:22;;;;;;;4.90;2.00;;;13.00;99.90;;;;;;5072228;28;20980;-69
2023/12/13 11:31:54;;;;;;;3.00;1.90;;;13.00;99.90;;;;;;5072194;28;20531;-71
2023/12/13 11:34:42;;;;;;;5.70;1.60;;;13.20;99.90;;;;;;5072323;28;20442;-69
2023/12/13 11:37:11;;;;;;;6.00;2.30;;;13.50;99.90;;;;;;5072295;28;20821;-68
2023/12/13 11:39:38;;;;;;;6.73;2.43;;;13.60;99.90;;;;;;5072038;28;20968;-69
2023/12/13 11:42:07;;;;;;;3.90;1.60;;;13.60;99.90;;;;;;5072118;28;21036;-68
2023/12/13 11:44:34;;;;;;;2.37;1.50;;;13.70;99.90;;;;;;5072011;28;20408;-69
2023/12/13 11:47:03;;;;;;;4.63;1.77;;;13.70;99.90;;;;;;5072096;28;20986;-70
2023/12/13 11:49:29;;;;;;;3.97;1.40;;;13.80;99.90;;;;;;5072016;28;20826;-69
2023/12/13 11:51:55;;;;;;;3.57;1.70;;;14.00;99.90;;;;;;5071955;28;20429;-69
2023/12/13 11:54:21;;;;;;;13.77;6.53;;;14.10;99.90;;;;;;5071997;28;20541;-70
2023/12/13 11:56:47;;;;;;;6.50;2.20;;;14.00;99.90;;;;;;5072099;28;20404;-70
2023/12/13 11:59:13;;;;;;;7.30;2.07;;;13.90;99.90;;;;;;5070630;28;20178;-71
2023/12/13 12:01:39;;;;;;;3.27;1.70;;;13.90;99.90;;;;;;5072074;28;20428;-69
2023/12/13 12:04:04;;;;;;;4.90;1.57;;;13.90;99.90;;;;;;5071882;28;20408;-70
2023/12/13 12:06:30;;;;;;;2.87;1.20;;;13.70;99.90;;;;;;5071944;28;20688;-69
2023/12/13 12:09:00;;;;;;;1.63;1.17;;;13.80;99.90;;;;;;5071902;28;20167;-70
2023/12/13 12:11:26;;;;;;;4.70;2.10;;;14.00;99.90;;;;;;5071873;28;20232;-69
2023/12/13 12:13:54;;;;;;;5.00;2.43;;;13.90;99.90;;;;;;5071814;28;20435;-69
2023/12/13 12:16:19;;;;;;;2.40;1.40;;;14.00;99.90;;;;;;5071953;28;20444;-69
2023/12/13 12:18:46;;;;;;;2.20;1.43;;;14.20;99.90;;;;;;5071678;28;20439;-69
2023/12/13 12:21:12;;;;;;;5.20;1.57;;;14.60;99.90;;;;;;5071507;28;20684;-70
2023/12/13 12:23:42;;;;;;;1.90;1.50;;;15.60;99.90;;;;;;5071235;28;20454;-70
2023/12/13 12:26:12;;;;;;;4.67;1.40;;;17.30;99.90;;;;;;5070400;28;20986;-69
2023/12/13 12:28:40;;;;;;;3.90;1.33;;;19.40;99.90;;;;;;5070290;28;20757;-70
2023/12/13 12:31:08;;;;;;;2.23;1.23;;;20.80;99.90;;;;;;5071674;28;20561;-70
2023/12/13 12:33:34;;;;;;;6.77;1.33;;;23.40;99.90;;;;;;5071638;28;20434;-70
2023/12/13 12:35:59;;;;;;;4.00;1.33;;;26.10;88.00;;;;;;5071684;28;20439;-71
2023/12/13 12:38:25;;;;;;;4.53;1.40;;;28.50;73.90;;;;;;5071588;28;20401;-72
2023/12/13 12:40:51;;;;;;;3.80;2.07;;;30.00;58.70;;;;;;5071391;28;20190;-71
2023/12/13 12:43:21;;;;;;;9.07;4.90;;;29.00;47.60;;;;;;5071460;28;20208;-70
2023/12/13 12:45:47;;;;;;;4.63;2.80;;;27.70;47.10;;;;;;5071495;28;20922;-70
2023/12/13 12:48:14;;;;;;;2.33;1.87;;;27.10;49.30;;;;;;5071564;28;20408;-70
2023/12/13 12:50:40;;;;;;;2.97;2.77;;;27.70;51.40;;;;;;5071371;28;20834;-71